Time;durP1;ratioP1;P1;durP2;ratioP2;P2;SDS_P1;SDS_P2;PMS_P1;PMS_P2;Temp;Humidity;BMP_temperature;BMP_pressure;BME280_temperature;BME280_humidity;BME280_pressure;Samples;Min_cycle;Max_cycle;Signal;HPM_P1;HPM_P2
2023/09/04 00:01:34;;;;;;;6.43;4.03;;;;;;;18.14;100.00;100823.06;12183119;19;20506;-84
2023/09/04 00:05:36;;;;;;;7.15;4.38;;;;;;;18.12;100.00;100817.78;12191310;19;20014;-82
2023/09/04 00:09:39;;;;;;;6.30;4.25;;;;;;;18.13;100.00;100815.81;12161804;19;20043;-84
2023/09/04 00:13:41;;;;;;;;;;;;;;;18.12;100.00;100814.16;12184197;19;20085;-83
2023/09/04 00:17:42;;;;;;;6.47;4.03;;;;;;;18.11;100.00;100816.06;12186041;19;19907;-86
2023/09/04 00:21:44;;;;;;;7.72;4.63;;;;;;;18.08;100.00;100808.25;12154526;19;20024;-85
2023/09/04 00:25:46;;;;;;;8.10;4.63;;;;;;;18.08;100.00;100827.78;12204274;19;20006;-84
2023/09/04 00:29:48;;;;;;;7.47;4.13;;;;;;;18.06;100.00;100823.63;12196660;19;20006;-84
2023/09/04 00:33:50;;;;;;;6.68;4.35;;;;;;;18.02;100.00;100826.09;12165269;19;20101;-84
2023/09/04 00:37:52;;;;;;;7.23;4.27;;;;;;;17.97;100.00;100823.31;12183613;19;20006;-84
2023/09/04 00:41:54;;;;;;;7.25;4.38;;;;;;;17.87;100.00;100831.63;12180848;19;20354;-86
2023/09/04 00:45:55;;;;;;;8.05;5.10;;;;;;;17.81;100.00;100819.63;12161297;19;20728;-85
2023/09/04 00:49:58;;;;;;;6.80;4.38;;;;;;;17.74;100.00;100814.28;12178910;19;20126;-86
2023/09/04 00:54:00;;;;;;;9.20;4.75;;;;;;;17.68;100.00;100812.59;12182900;19;20368;-85
2023/09/04 00:58:14;;;;;;;8.25;4.75;;;;;;;17.66;100.00;100803.66;12149091;19;20499;-86
2023/09/04 01:02:16;;;;;;;6.32;4.45;;;;;;;17.60;100.00;100807.53;12182212;19;20015;-84
2023/09/04 01:06:18;;;;;;;8.10;4.37;;;;;;;17.62;100.00;100810.91;12184603;19;20006;-84
2023/09/04 01:10:21;;;;;;;7.82;4.32;;;;;;;17.69;100.00;100808.69;12166676;19;20038;-84
2023/09/04 01:14:24;;;;;;;6.72;4.18;;;;;;;17.73;100.00;100817.34;12187518;19;20011;-84
2023/09/04 01:18:28;;;;;;;6.25;4.38;;;;;;;17.74;100.00;100814.28;12169145;19;20388;-85
2023/09/04 01:22:30;;;;;;;6.40;4.20;;;;;;;17.69;100.00;100805.88;12189590;19;20415;-85
2023/09/04 01:26:40;;;;;;;7.53;4.45;;;;;;;17.67;100.00;100801.72;12190122;19;20640;-85
2023/09/04 01:31:07;;;;;;;8.73;4.15;;;;;;;17.62;100.00;100796.13;12167650;19;20105;-86
2023/09/04 01:35:12;;;;;;;5.60;3.97;;;;;;;17.59;100.00;100811.44;12192164;19;20372;-86
2023/09/04 01:39:15;;;;;;;6.57;3.67;;;;;;;17.59;100.00;100813.41;12189387;19;20017;-85
2023/09/04 01:43:18;;;;;;;7.25;5.05;;;;;;;17.52;100.00;100813.66;12170100;19;20010;-87
2023/09/04 01:47:21;;;;;;;7.60;4.28;;;;;;;17.44;100.00;100803.03;12186922;19;20118;-85
2023/09/04 01:51:23;;;;;;;9.73;4.85;;;;;;;17.26;100.00;100804.31;12185818;19;20092;-85
2023/09/04 01:55:25;;;;;;;7.78;4.72;;;;;;;17.10;100.00;100808.94;12171863;19;20100;-86
2023/09/04 01:59:27;;;;;;;7.18;4.85;;;;;;;16.98;100.00;100799.97;12185952;19;20038;-85
2023/09/04 02:03:28;;;;;;;7.40;5.05;;;;;;;16.87;100.00;100809.38;12191586;19;20680;-85
2023/09/04 02:07:30;;;;;;;9.80;5.20;;;;;;;16.76;100.00;100809.28;12170458;19;20014;-84
2023/09/04 02:11:32;;;;;;;7.15;5.20;;;;;;;16.58;100.00;100809.66;12189911;19;20466;-84
2023/09/04 02:15:37;;;;;;;7.95;5.72;;;;;;;16.43;100.00;100809.53;12191838;19;20007;-83
2023/09/04 02:19:39;;;;;;;8.10;5.38;;;;;;;16.33;100.00;100804.69;12163778;19;20023;-84
2023/09/04 02:23:43;;;;;;;8.02;5.10;;;;;;;16.21;100.00;100801.25;12185558;19;20010;-84
2023/09/04 02:27:46;;;;;;;8.93;6.00;;;;;;;16.12;100.00;100800.88;12174004;19;20014;-85
2023/09/04 02:31:48;;;;;;;7.32;5.00;;;;;;;16.09;100.00;100798.63;12186490;19;20031;-85
2023/09/04 02:35:51;;;;;;;9.80;5.63;;;;;;;16.07;100.00;100796.13;12185953;19;20003;-85
2023/09/04 02:39:53;;;;;;;9.48;6.60;;;;;;;15.96;100.00;100788.78;12160902;19;20014;-83
2023/09/04 02:43:55;;;;;;;10.65;6.18;;;;;;;15.90;100.00;100785.09;12187315;19;20640;-84
2023/09/04 02:47:59;;;;;;;15.93;6.90;;;;;;;15.95;100.00;100782.38;12194087;19;20026;-86
2023/09/04 02:52:01;;;;;;;6.75;5.35;;;;;;;15.99;100.00;100793.81;12161996;19;20400;-86
2023/09/04 02:56:03;;;;;;;11.48;5.47;;;;;;;16.00;100.00;100792.69;12187127;19;20010;-85
2023/09/04 03:00:06;;;;;;;9.03;5.30;;;;;;;16.00;100.00;100787.13;12185204;19;20015;-85
2023/09/04 03:04:08;;;;;;;;;;;;;;;16.03;100.00;100794.97;12165172;19;20287;-85
2023/09/04 03:08:10;;;;;;;9.48;5.60;;;;;;;16.06;100.00;100790.81;12197036;19;19910;-84
2023/09/04 03:12:12;;;;;;;7.77;5.67;;;;;;;16.10;100.00;100791.97;12195862;19;20011;-85
2023/09/04 03:16:14;;;;;;;9.13;4.87;;;;;;;16.08;100.00;100795.00;12165740;19;20031;-86
2023/09/04 03:20:19;;;;;;;15.30;7.07;;;;;;;16.07;100.00;100803.63;12184768;19;20010;-85
2023/09/04 03:24:24;;;;;;;8.23;6.22;;;;;;;16.01;100.00;100796.34;12185398;19;21357;-85
2023/09/04 03:28:26;;;;;;;7.68;4.93;;;;;;;15.94;100.00;100794.59;12161177;19;20364;-86
2023/09/04 03:32:28;;;;;;;11.88;6.18;;;;;;;15.87;100.00;100798.69;12184029;19;20010;-85
2023/09/04 03:36:30;;;;;;;10.45;6.70;;;;;;;15.77;100.00;100802.19;12182314;19;20006;-83
2023/09/04 03:40:32;;;;;;;9.32;5.40;;;;;;;15.68;100.00;100803.75;12157927;19;20075;-84
2023/09/04 03:44:34;;;;;;;9.05;5.70;;;;;;;15.60;100.00;100804.16;12179382;19;20011;-85
2023/09/04 03:48:36;;;;;;;8.98;6.05;;;;;;;15.51;100.00;100801.00;12181455;19;20072;-83
2023/09/04 03:52:40;;;;;;;10.85;6.65;;;;;;;15.44;100.00;100805.94;12158183;19;20018;-85
2023/09/04 03:56:43;;;;;;;9.13;5.60;;;;;;;15.42;100.00;100797.84;12183108;19;20014;-85
2023/09/04 04:00:56;;;;;;;10.27;5.70;;;;;;;15.43;100.00;100799.50;12160137;19;20027;-83
2023/09/04 04:04:59;;;;;;;7.55;5.30;;;;;;;15.49;100.00;100795.69;12182991;19;20339;-83
2023/09/04 04:09:00;;;;;;;7.43;4.13;;;;;;;15.63;100.00;100795.31;12180513;19;20035;-85
2023/09/04 04:13:02;;;;;;;8.05;4.57;;;;;;;15.79;100.00;100786.06;12159751;19;20077;-84
2023/09/04 04:17:04;;;;;;;6.77;4.17;;;;;;;16.01;100.00;100790.78;12181408;19;20007;-83
2023/09/04 04:21:06;;;;;;;7.53;4.03;;;;;;;16.17;100.00;100796.22;12180121;19;20027;-84
2023/09/04 04:25:10;;;;;;;6.78;4.38;;;;;;;16.30;100.00;100786.63;12158371;19;20002;-85
2023/09/04 04:29:12;;;;;;;5.45;3.80;;;;;;;16.34;100.00;100798.88;12178998;19;20780;-84
2023/09/04 04:33:14;;;;;;;7.30;4.55;;;;;;;16.37;100.00;100800.31;12178267;19;20030;-82
2023/09/04 04:37:16;;;;;;;8.68;4.45;;;;;;;16.35;100.00;100796.94;12162901;19;20031;-83
2023/09/04 04:41:18;;;;;;;8.15;4.30;;;;;;;16.30;100.00;100803.31;12192844;19;20010;-80
2023/09/04 04:45:20;;;;;;;9.82;5.20;;;;;;;16.25;100.00;100803.25;12216957;19;20034;-82
2023/09/04 04:49:24;;;;;;;5.80;4.03;;;;;;;16.22;100.00;100800.16;12204409;19;20050;-83
2023/09/04 04:53:26;;;;;;;6.83;4.27;;;;;;;16.15;100.00;100809.56;12207684;19;20485;-85
2023/09/04 04:57:28;;;;;;;7.95;4.28;;;;;;;16.11;100.00;100805.59;12203271;19;20018;-85
2023/09/04 05:01:30;;;;;;;8.05;4.03;;;;;;;16.14;100.00;100812.59;12178860;19;20006;-82
2023/09/04 05:05:32;;;;;;;6.20;4.22;;;;;;;16.16;100.00;100830.69;12194707;19;20011;-84
2023/09/04 05:09:34;;;;;;;10.77;5.00;;;;;;;16.18;100.00;100831.28;12204735;19;20383;-84
2023/09/04 05:13:36;;;;;;;6.50;4.53;;;;;;;16.22;100.00;100825.19;12174207;19;20080;-83
2023/09/04 05:17:38;;;;;;;7.70;4.50;;;;;;;16.19;100.00;100823.78;12194302;19;20031;-85
2023/09/04 05:21:40;;;;;;;6.67;4.13;;;;;;;16.19;100.00;100818.22;12181032;19;20007;-85
2023/09/04 05:25:57;;;;;;;7.63;4.50;;;;;;;16.25;100.00;100831.06;12201558;19;20003;-81
2023/09/04 05:30:07;;;;;;;6.77;4.70;;;;;;;16.30;100.00;100833.03;12200285;19;20010;-83
2023/09/04 05:34:10;;;;;;;7.63;4.85;;;;;;;16.33;100.00;100840.84;12169709;19;20051;-83
2023/09/04 05:38:12;;;;;;;9.15;4.60;;;;;;;16.41;100.00;100837.59;12182577;19;20003;-84
2023/09/04 05:42:14;;;;;;;9.93;4.50;;;;;;;16.42;100.00;100836.53;12197292;19;20023;-84
2023/09/04 05:46:16;;;;;;;8.60;5.10;;;;;;;16.43;100.00;100837.34;12177828;19;20015;-83
2023/09/04 05:50:18;;;;;;;7.35;4.15;;;;;;;16.41;100.00;100827.31;12191926;19;19998;-83
2023/09/04 05:54:22;;;;;;;6.05;4.18;;;;;;;16.45;100.00;100826.78;12192566;19;20438;-83
2023/09/04 05:58:25;;;;;;;8.18;4.47;;;;;;;16.48;100.00;100820.69;12167142;19;20129;-83
2023/09/04 06:02:28;;;;;;;12.00;4.40;;;;;;;16.51;100.00;100826.59;12195054;19;20003;-83
2023/09/04 06:06:30;;;;;;;9.48;4.80;;;;;;;16.58;100.00;100832.75;12190123;19;20051;-84
2023/09/04 06:10:31;;;;;;;7.03;4.45;;;;;;;16.65;100.00;100835.31;12166239;19;20121;-82
2023/09/04 06:14:34;;;;;;;7.87;4.77;;;;;;;16.64;100.00;100834.47;12193295;19;20011;-82
2023/09/04 06:18:36;;;;;;;5.88;4.10;;;;;;;16.69;100.00;100825.34;12188328;19;20018;-82
2023/09/04 06:22:39;;;;;;;5.63;4.20;;;;;;;16.78;100.00;100829.34;12164983;19;20002;-82
2023/09/04 06:26:44;;;;;;;7.30;4.35;;;;;;;16.84;100.00;100822.72;12188321;19;20003;-84
2023/09/04 06:30:46;;;;;;;6.80;4.68;;;;;;;16.84;100.00;100822.72;12169256;19;20015;-83
2023/09/04 06:34:47;;;;;;;6.73;4.70;;;;;;;16.85;100.00;100810.47;12193842;19;20627;-82
2023/09/04 06:38:49;;;;;;;8.90;4.60;;;;;;;16.93;100.00;100814.69;12186604;19;20006;-83
2023/09/04 06:42:54;;;;;;;5.70;4.20;;;;;;;16.99;100.00;100815.56;12168006;19;20339;-83
2023/09/04 06:46:56;;;;;;;6.72;4.00;;;;;;;17.10;100.00;100820.06;12194954;19;20014;-83
2023/09/04 06:51:10;;;;;;;6.55;4.30;;;;;;;17.26;100.00;100812.69;12194390;19;20003;-85
2023/09/04 06:55:12;;;;;;;6.90;4.22;;;;;;;17.37;100.00;100799.63;12167310;19;19999;-84
2023/09/04 06:59:17;;;;;;;10.38;5.00;;;;;;;17.52;100.00;100792.19;12193346;19;20024;-83
2023/09/04 07:03:18;;;;;;;9.32;4.10;;;;;;;17.64;100.00;100791.09;12187890;19;20011;-82
2023/09/04 07:07:26;;;;;;;7.55;4.50;;;;;;;17.82;100.00;100781.44;12174365;19;20565;-85
2023/09/04 07:11:34;;;;;;;5.63;3.88;;;;;;;17.97;100.00;100790.69;12191227;19;20002;-83
2023/09/04 07:15:36;;;;;;;4.87;3.50;;;;;;;18.22;100.00;100787.09;12191000;19;20020;-84
2023/09/04 07:19:38;;;;;;;5.13;3.00;;;;;;;18.38;100.00;100784.31;12168266;19;20011;-82
2023/09/04 07:23:40;;;;;;;6.20;3.20;;;;;;;18.49;100.00;100790.75;12168677;19;20090;-87
2023/09/04 07:27:42;;;;;;;5.63;3.35;;;;;;;18.67;100.00;100801.34;12170227;19;20108;-84
2023/09/04 07:31:48;;;;;;;8.40;3.30;;;;;;;18.87;100.00;100800.53;12192681;19;20017;-85
2023/09/04 07:35:59;;;;;;;4.97;3.40;;;;;;;18.96;100.00;100801.63;12189263;19;20014;-85
2023/09/04 07:40:02;;;;;;;9.55;3.65;;;;;;;19.18;100.00;100798.50;12166672;19;20003;-84
2023/09/04 07:44:04;;;;;;;5.93;3.70;;;;;;;19.50;100.00;100795.34;12188077;19;20002;-84
2023/09/04 07:48:06;;;;;;;5.47;3.45;;;;;;;19.80;100.00;100794.38;12190156;19;20018;-84
2023/09/04 07:52:08;;;;;;;6.00;3.70;;;;;;;20.08;100.00;100792.00;12165990;19;20010;-84
2023/09/04 07:56:11;;;;;;;4.25;2.70;;;;;;;20.35;99.23;100780.34;12186501;19;20019;-86
2023/09/04 08:00:19;;;;;;;6.65;3.60;;;;;;;20.56;94.10;100783.84;12186358;19;20093;-84
2023/09/04 08:04:22;;;;;;;6.63;3.20;;;;;;;20.82;94.64;100787.25;12172083;19;20565;-84
2023/09/04 08:08:24;;;;;;;7.73;3.17;;;;;;;21.06;94.00;100787.28;12192973;19;20366;-82
2023/09/04 08:12:27;;;;;;;5.75;2.85;;;;;;;21.32;90.90;100790.63;12184932;19;20956;-82
2023/09/04 08:16:30;;;;;;;4.13;2.72;;;;;;;21.55;87.25;100786.19;12165050;19;20039;-83
2023/09/04 08:20:33;;;;;;;4.60;2.90;;;;;;;21.77;86.68;100782.81;12185241;19;20018;-85
2023/09/04 08:24:35;;;;;;;5.72;3.30;;;;;;;21.94;83.70;100789.88;12183588;19;20010;-86
2023/09/04 08:28:40;;;;;;;5.68;2.95;;;;;;;22.12;83.54;100786.25;12166535;19;20081;-84
2023/09/04 08:32:57;;;;;;;6.78;2.75;;;;;;;22.42;81.60;100784.13;12181630;19;20018;-84
2023/09/04 08:36:59;;;;;;;6.68;3.00;;;;;;;22.58;78.71;100777.13;12162959;19;20470;-86
2023/09/04 08:41:07;;;;;;;4.95;2.63;;;;;;;22.67;77.09;100768.84;12181678;19;20020;-87
2023/09/04 08:45:42;;;;;;;3.85;2.72;;;;;;;22.96;75.25;100772.28;12180137;19;20672;-86
2023/09/04 08:49:53;;;;;;;4.07;2.95;;;;;;;23.14;73.51;100773.34;12159531;19;20041;-85
2023/09/04 08:53:59;;;;;;;7.10;2.70;;;;;;;23.36;71.16;100780.22;12180505;19;20006;-85
2023/09/04 08:58:09;;;;;;;3.80;2.42;;;;;;;23.57;69.52;100781.44;12182004;19;20086;-86
2023/09/04 09:02:22;;;;;;;3.60;2.42;;;;;;;23.66;68.66;100773.09;12184134;19;20011;-88
2023/09/04 09:06:28;;;;;;;3.53;2.50;;;;;;;23.79;65.63;100765.81;12180494;19;20011;-88
2023/09/04 09:11:05;;;;;;;4.53;2.40;;;;;;;23.92;65.70;100776.22;12154923;19;20039;-87
2023/09/04 09:15:14;;;;;;;3.17;2.38;;;;;;;24.22;63.71;100766.22;12190807;19;20485;-88
2023/09/04 09:20:13;;;;;;;3.55;2.63;;;;;;;24.46;62.30;100773.56;12155598;19;20114;-87
2023/09/04 09:25:01;;;;;;;3.65;2.40;;;;;;;24.64;62.89;100763.25;12176949;19;20014;-88
2023/09/04 09:29:29;;;;;;;5.07;2.65;;;;;;;24.77;62.77;100765.16;12167979;19;20011;-87
2023/09/04 09:33:34;;;;;;;4.00;2.47;;;;;;;24.92;58.35;100769.56;12212529;19;20074;-88
2023/09/04 09:37:38;;;;;;;3.97;2.22;;;;;;;25.00;59.61;100761.13;12169530;19;20074;-87
2023/09/04 09:41:40;;;;;;;6.95;3.20;;;;;;;25.09;60.57;100764.00;12186862;19;20013;-90
2023/09/04 09:45:42;;;;;;;5.65;2.70;;;;;;;25.33;59.33;100743.88;12189293;19;20023;-88
2023/09/04 09:50:00;;;;;;;7.30;4.65;;;;;;;25.44;55.86;100748.09;12167946;19;20014;-87
2023/09/04 09:54:36;;;;;;;6.57;2.75;;;;;;;25.50;53.23;100737.47;12191421;19;20002;-88
2023/09/04 10:08:32;;;;;;;3.95;2.50;;;;;;;25.98;52.00;100724.47;12176828;19;20006;-89
2023/09/04 10:13:14;;;;;;;4.72;2.75;;;;;;;26.01;48.39;100727.44;12202622;19;20009;-89
2023/09/04 10:17:37;;;;;;;3.55;2.20;;;;;;;26.36;48.36;100716.97;12191485;19;20102;-89
2023/09/04 10:21:48;;;;;;;3.47;2.15;;;;;;;26.61;48.66;100719.28;12250801;19;20018;-86
2023/09/04 10:26:11;;;;;;;2.60;2.15;;;;;;;26.73;48.14;100711.75;12218007;19;20002;-88
2023/09/04 10:30:28;;;;;;;3.92;2.00;;;;;;;26.86;47.16;100720.38;12215990;19;20019;-87
2023/09/04 10:39:48;;;;;;;2.95;1.85;;;;;;;27.16;45.31;100707.97;12214630;19;20017;-88
2023/09/04 10:43:57;;;;;;;4.18;2.30;;;;;;;27.39;44.52;100702.84;12197669;19;20015;-86
2023/09/04 10:48:07;;;;;;;5.28;2.05;;;;;;;27.58;44.48;100699.59;12233811;19;20030;-88
2023/09/04 10:52:17;;;;;;;4.65;2.35;;;;;;;27.71;43.29;100694.81;12220013;19;20525;-90
2023/09/04 10:56:25;;;;;;;2.85;2.03;;;;;;;27.87;44.33;100689.38;12209487;19;20010;-88
2023/09/04 11:00:40;;;;;;;4.97;1.80;;;;;;;28.05;42.10;100682.44;12202031;19;20062;-88
2023/09/04 11:04:46;;;;;;;4.40;2.28;;;;;;;27.98;41.90;100678.47;12203672;19;20049;-87
2023/09/04 11:08:53;;;;;;;4.63;2.67;;;;;;;27.97;42.36;100677.66;12210804;19;21102;-87
2023/09/04 11:12:55;;;;;;;4.53;2.20;;;;;;;28.02;42.05;100670.94;12206329;19;20035;-87
2023/09/04 11:17:32;;;;;;;4.05;2.30;;;;;;;28.09;42.34;100669.22;12180137;19;20350;-88
2023/09/04 11:21:36;;;;;;;3.72;1.83;;;;;;;28.32;42.68;100663.16;12200151;19;20370;-86
2023/09/04 11:25:38;;;;;;;4.30;2.45;;;;;;;28.41;42.16;100666.78;12175700;19;20023;-87
2023/09/04 11:29:49;;;;;;;3.78;2.58;;;;;;;28.52;41.96;100665.13;12203857;19;20694;-89
2023/09/04 11:33:58;;;;;;;3.25;2.25;;;;;;;28.61;40.94;100657.34;12201432;19;21459;-88
2023/09/04 11:38:25;;;;;;;3.47;2.17;;;;;;;28.79;40.31;100657.13;12176308;19;20014;-88
2023/09/04 11:42:48;;;;;;;4.38;2.50;;;;;;;28.94;39.36;100652.78;12196956;19;20002;-88
2023/09/04 11:46:50;;;;;;;2.88;2.10;;;;;;;29.33;39.58;100651.28;12193063;19;20006;-89
2023/09/04 11:51:04;;;;;;;5.10;2.22;;;;;;;29.94;38.58;100639.78;12196937;19;20035;-87
2023/09/04 11:55:39;;;;;;;3.25;2.10;;;;;;;30.51;36.86;100628.41;12197863;19;20086;-87
2023/09/04 11:59:55;;;;;;;5.60;2.33;;;;;;;31.22;37.23;100629.41;12171999;19;20006;-89
2023/09/04 12:04:03;;;;;;;5.88;2.65;;;;;;;31.59;35.49;100629.06;12202362;19;20331;-88
2023/09/04 12:08:11;;;;;;;3.00;2.20;;;;;;;32.05;33.37;100627.22;12177686;19;20013;-88
2023/09/04 12:12:28;;;;;;;3.10;2.03;;;;;;;32.30;32.73;100609.78;12194808;19;20187;-87
2023/09/04 12:16:31;;;;;;;3.13;2.40;;;;;;;32.49;32.88;100614.66;12185806;19;20011;-88
2023/09/04 12:20:40;;;;;;;3.97;2.40;;;;;;;32.92;32.38;100613.38;12204222;19;20469;-87
2023/09/04 12:25:05;;;;;;;3.72;2.78;;;;;;;33.51;31.30;100597.59;12205425;19;20086;-89
2023/09/04 12:29:09;;;;;;;3.00;2.42;;;;;;;33.81;30.44;100593.91;12186448;19;20018;-89
2023/09/04 12:33:18;;;;;;;4.45;2.50;;;;;;;34.30;30.03;100584.28;12205147;19;20510;-85
2023/09/04 12:37:20;;;;;;;4.00;2.70;;;;;;;34.45;29.65;100570.94;12181293;19;20373;-88
2023/09/04 12:41:23;;;;;;;2.97;2.17;;;;;;;34.81;28.48;100574.97;12200719;19;20021;-87
2023/09/04 12:45:27;;;;;;;3.95;2.55;;;;;;;35.15;27.51;100560.50;12196793;19;20003;-87
2023/09/04 12:49:33;;;;;;;3.67;2.28;;;;;;;35.49;26.97;100557.38;12172413;19;20028;-88
2023/09/04 12:53:35;;;;;;;4.22;2.67;;;;;;;35.76;26.44;100550.19;12196689;19;20407;-87
2023/09/04 12:57:37;;;;;;;4.57;2.35;;;;;;;35.96;26.58;100532.59;12202009;19;20006;-88
2023/09/04 13:01:39;;;;;;;3.28;2.20;;;;;;;36.57;26.17;100533.56;12180922;19;20011;-89
2023/09/04 13:05:42;;;;;;;3.13;2.22;;;;;;;36.88;25.04;100520.41;12215656;19;21069;-87
2023/09/04 13:09:47;;;;;;;4.35;2.42;;;;;;;37.21;24.07;100523.22;12213239;19;19998;-87
2023/09/04 13:13:49;;;;;;;3.35;2.40;;;;;;;37.23;23.75;100506.41;12192011;19;20006;-89
2023/09/04 13:17:54;;;;;;;4.05;2.40;;;;;;;37.42;24.25;100517.41;12218378;19;20007;-89
2023/09/04 13:21:57;;;;;;;4.30;2.38;;;;;;;37.58;23.33;100511.22;12212538;19;20011;-87
2023/09/04 13:26:00;;;;;;;3.05;2.45;;;;;;;37.41;24.07;100507.16;12185990;19;20003;-88
2023/09/04 13:30:06;;;;;;;2.70;2.25;;;;;;;37.65;23.38;100501.75;12209023;19;20078;-86
2023/09/04 13:34:08;;;;;;;2.70;2.20;;;;;;;37.94;22.54;100494.59;12206527;19;20002;-86
2023/09/04 13:38:14;;;;;;;2.47;2.00;;;;;;;37.72;23.80;100501.69;12185354;19;20016;-87
2023/09/04 13:42:20;;;;;;;2.85;2.40;;;;;;;37.90;22.67;100492.94;12208018;19;20407;-86
2023/09/04 13:46:34;;;;;;;2.97;2.40;;;;;;;38.12;22.84;100477.22;12192485;19;20007;-86
2023/09/04 13:50:36;;;;;;;3.13;2.30;;;;;;;38.25;22.51;100480.41;12217170;19;20040;-87
2023/09/04 13:54:38;;;;;;;4.95;2.60;;;;;;;38.19;22.19;100491.53;12220155;19;20539;-84
2023/09/04 13:58:43;;;;;;;2.42;2.20;;;;;;;38.16;21.66;100480.06;12207183;19;20877;-88
2023/09/04 14:03:02;;;;;;;4.20;2.53;;;;;;;37.01;22.63;100483.50;12241656;19;20010;-85
2023/09/04 14:07:23;;;;;;;3.70;2.38;;;;;;;35.03;24.61;100481.41;12215395;19;20011;-86
2023/09/04 14:11:27;;;;;;;3.08;2.60;;;;;;;33.67;25.32;100482.25;12202322;19;20031;-86
2023/09/04 14:15:42;;;;;;;4.03;2.17;;;;;;;32.67;26.78;100476.00;12223958;19;20026;-87
2023/09/04 14:19:59;;;;;;;3.53;2.65;;;;;;;31.88;27.84;100470.91;12192603;19;20023;-85
2023/09/04 14:24:19;;;;;;;6.18;2.35;;;;;;;31.32;28.76;100463.66;12199932;19;20057;-85
2023/09/04 14:28:46;;;;;;;3.83;2.40;;;;;;;31.19;29.21;100465.84;12198908;19;20003;-85
2023/09/04 14:32:53;;;;;;;3.40;2.00;;;;;;;31.35;29.11;100462.94;12196974;19;20017;-88
2023/09/04 14:37:28;;;;;;;5.10;2.30;;;;;;;32.47;28.50;100455.28;12190739;19;20030;-86
2023/09/04 14:41:33;;;;;;;4.50;2.00;;;;;;;33.84;27.38;100455.91;12168238;19;20011;-86
2023/09/04 14:45:35;;;;;;;3.53;2.45;;;;;;;34.34;26.46;100455.59;12191796;19;20003;-86
2023/09/04 15:09:40;;;;;;;2.95;2.10;;;;;;;31.71;28.11;100441.72;12190415;19;20045;-84
2023/09/04 15:13:44;;;;;;;3.38;2.03;;;;;;;31.23;28.96;100437.44;12176441;19;20007;-85
2023/09/04 15:18:20;;;;;;;5.63;2.00;;;;;;;30.76;28.94;100442.13;12200178;19;20553;-86
2023/09/04 15:27:39;;;;;;;4.25;2.03;;;;;;;30.00;30.00;100426.41;12176551;19;20027;-85
2023/09/04 15:31:49;;;;;;;3.83;2.00;;;;;;;29.79;30.59;100432.38;12103656;19;20012;-85
2023/09/04 15:36:22;;;;;;;3.70;1.95;;;;;;;29.55;30.67;100444.66;12188246;19;20019;-85
2023/09/04 15:45:53;;;;;;;3.72;2.13;;;;;;;30.06;30.84;100422.09;12191085;19;19999;-85
2023/09/04 15:50:39;;;;;;;3.22;1.88;;;;;;;29.54;30.81;100421.13;12169382;19;20015;-85
2023/09/04 16:14:30;;;;;;;3.60;2.35;;;;;;;28.84;33.94;100421.50;12187347;19;20013;-84
2023/09/04 16:18:34;;;;;;;5.15;2.55;;;;;;;28.94;33.52;100411.66;12191582;19;20031;-84
2023/09/04 16:23:05;;;;;;;3.22;1.85;;;;;;;28.78;33.21;100408.75;12196473;19;20022;-84
2023/09/04 16:27:37;;;;;;;4.80;2.47;;;;;;;28.60;33.39;100406.19;12197442;19;20014;-84
2023/09/04 16:32:23;;;;;;;5.82;2.35;;;;;;;28.49;34.21;100415.53;12216201;19;20031;-84
2023/09/04 16:36:42;;;;;;;5.28;2.42;;;;;;;28.15;35.26;100409.16;12198544;19;20082;-85
2023/09/04 16:41:34;;;;;;;4.80;1.77;;;;;;;27.84;35.46;100401.22;12174287;19;20021;-85
2023/09/04 16:51:00;;;;;;;5.30;1.75;;;;;;;27.17;36.45;100394.78;12195242;19;20026;-84
2023/09/04 16:55:02;;;;;;;3.58;1.70;;;;;;;26.99;38.07;100394.91;12230449;19;20401;-84
2023/09/04 16:59:22;;;;;;;;;;;;;;;;;;;;;
2023/09/04 17:03:33;;;;;;;3.45;1.92;;;;;;;26.64;38.00;100383.06;12194684;19;20014;-84
2023/09/04 17:08:11;;;;;;;4.40;1.90;;;;;;;26.47;40.51;100378.31;12177286;19;20117;-84
2023/09/04 17:12:33;;;;;;;4.05;2.05;;;;;;;26.20;40.06;100376.84;12199199;19;20017;-84
2023/09/04 17:16:47;;;;;;;7.93;2.10;;;;;;;26.00;42.13;100370.00;12175356;19;20066;-84
2023/09/04 17:20:48;;;;;;;4.55;2.70;;;;;;;25.74;42.62;100367.25;12197434;19;20014;-84
2023/09/04 17:24:54;;;;;;;6.07;2.50;;;;;;;25.48;44.01;100377.81;12205927;19;20030;-84
2023/09/04 17:28:56;;;;;;;3.97;2.30;;;;;;;25.16;44.81;100374.38;12198652;19;20002;-84
2023/09/04 17:33:00;;;;;;;4.00;2.30;;;;;;;24.86;46.02;100368.56;12221246;19;20469;-82
2023/09/04 17:37:02;;;;;;;8.43;2.40;;;;;;;24.74;46.55;100377.69;12197362;19;20027;-82
2023/09/04 17:41:07;;;;;;;5.32;2.03;;;;;;;24.50;48.79;100375.34;12172586;19;20103;-84
2023/09/04 17:45:09;;;;;;;10.43;2.58;;;;;;;24.20;51.02;100387.53;12195165;19;20007;-83
2023/09/04 17:49:12;;;;;;;5.85;2.08;;;;;;;23.89;52.54;100374.38;12195350;19;20006;-85
2023/09/04 17:53:17;;;;;;;6.18;2.67;;;;;;;23.64;53.99;100382.34;12174730;19;20426;-86
2023/09/04 17:57:19;;;;;;;5.83;2.10;;;;;;;23.35;54.50;100387.63;12195240;19;20015;-84
2023/09/04 18:01:21;;;;;;;8.18;2.40;;;;;;;23.11;56.09;100388.81;12195716;19;20260;-84
2023/09/04 18:05:23;;;;;;;6.15;2.22;;;;;;;22.90;58.52;100377.22;12171189;19;20007;-84
2023/09/04 18:09:25;;;;;;;6.00;2.40;;;;;;;22.66;59.66;100383.13;12195864;19;20060;-86
2023/09/04 18:13:26;;;;;;;5.30;2.10;;;;;;;22.41;61.33;100378.13;12193914;19;20813;-83
2023/09/04 18:22:31;;;;;;;4.03;2.10;;;;;;;21.99;61.55;100378.13;12196718;19;20033;-83
2023/09/04 18:26:35;;;;;;;3.70;1.80;;;;;;;21.88;61.17;100371.06;12174798;19;20019;-82
2023/09/04 18:30:55;;;;;;;5.30;2.30;;;;;;;21.82;60.80;100380.72;12193241;19;20006;-83
2023/09/04 18:44:57;;;;;;;4.78;2.00;;;;;;;21.73;62.08;100372.19;12089238;19;20066;-83
2023/09/04 18:49:00;;;;;;;5.82;2.17;;;;;;;21.68;63.98;100383.50;12215330;19;20014;-84
2023/09/04 18:53:03;;;;;;;5.80;2.03;;;;;;;21.59;63.50;100379.78;12168190;19;20537;-83
2023/09/04 18:57:09;;;;;;;5.30;1.75;;;;;;;21.55;63.54;100376.75;12192703;19;20007;-83
2023/09/04 19:12:12;;;;;;;3.90;2.17;;;;;;;21.38;64.25;100374.53;12192978;19;20044;-83
2023/09/04 19:16:42;;;;;;;6.13;2.55;;;;;;;21.33;64.65;100377.44;12210033;19;20022;-83
2023/09/04 19:26:02;;;;;;;7.13;2.35;;;;;;;;;;12187827;19;20514;-83
2023/09/04 19:30:08;;;;;;;6.60;2.22;;;;;;;21.02;64.93;100382.72;12189615;19;20035;-83
2023/09/04 19:34:54;;;;;;;4.50;1.83;;;;;;;20.97;67.62;100376.38;12187294;19;20014;-84
2023/09/04 19:38:58;;;;;;;6.03;2.17;;;;;;;20.87;68.03;100375.41;12187647;19;20518;-83
2023/09/04 19:43:30;;;;;;;6.40;2.10;;;;;;;20.85;67.81;100372.09;12191260;19;20017;-83
2023/09/04 19:47:34;;;;;;;4.18;1.98;;;;;;;20.81;67.64;100371.03;12170660;19;20033;-83
2023/09/04 19:51:37;;;;;;;3.05;1.73;;;;;;;20.76;68.48;100371.09;12188272;19;21326;-83
2023/09/04 19:55:38;;;;;;;4.80;2.07;;;;;;;20.71;68.44;100365.59;12166519;19;20021;-83
2023/09/04 19:59:40;;;;;;;6.77;2.20;;;;;;;20.66;68.57;100351.66;12186991;19;20014;-83
2023/09/04 20:03:42;;;;;;;8.20;2.53;;;;;;;20.64;67.81;100365.13;12186189;19;20026;-83
2023/09/04 20:07:44;;;;;;;6.90;2.83;;;;;;;20.67;68.25;100364.53;12164999;19;20017;-83
2023/09/04 20:11:46;;;;;;;8.70;2.00;;;;;;;20.68;68.61;100369.00;12186303;19;20034;-83
2023/09/04 20:15:48;;;;;;;9.50;2.95;;;;;;;20.73;68.56;100368.06;12185866;19;20031;-83
2023/09/04 20:19:50;;;;;;;7.82;2.45;;;;;;;20.72;70.31;100367.25;12163112;19;20098;-83
2023/09/04 20:23:57;;;;;;;6.67;2.07;;;;;;;20.65;70.22;100367.63;12187559;19;20285;-82
2023/09/04 20:27:59;;;;;;;4.20;2.25;;;;;;;20.61;69.21;100371.34;12185926;19;20259;-83
2023/09/04 20:32:04;;;;;;;6.90;2.00;;;;;;;20.62;70.10;100373.03;12167104;19;20324;-82
2023/09/04 20:36:06;;;;;;;8.13;2.50;;;;;;;20.58;71.02;100375.56;12149104;19;20010;-82
2023/09/04 20:40:09;;;;;;;5.47;2.28;;;;;;;20.49;71.80;100385.75;12177432;19;20027;-82